sensor_id;sensor_type;location;lat;lon;timestamp;P1;durP1;ratioP1;P2;durP2;ratioP2
68074;SDS011;54864;52.002;5.468;2023-12-22T00:00:47;23.02;;;4.32;;
68074;SDS011;54864;52.002;5.468;2023-12-22T00:02:09;16.60;;;4.65;;
68074;SDS011;54864;52.002;5.468;2023-12-22T00:03:31;22.60;;;5.50;;
68074;SDS011;54864;52.002;5.468;2023-12-22T00:04:54;19.38;;;4.22;;
68074;SDS011;54864;52.002;5.468;2023-12-22T00:06:15;22.93;;;4.63;;
68074;SDS011;54864;52.002;5.468;2023-12-22T00:07:37;21.15;;;4.13;;
68074;SDS011;54864;52.002;5.468;2023-12-22T00:08:58;16.38;;;3.92;;
68074;SDS011;54864;52.002;5.468;2023-12-22T00:10:20;15.35;;;3.95;;
68074;SDS011;54864;52.002;5.468;2023-12-22T00:11:42;19.45;;;4.35;;
68074;SDS011;54864;52.002;5.468;2023-12-22T00:13:04;16.85;;;3.28;;
68074;SDS011;54864;52.002;5.468;2023-12-22T00:14:25;22.15;;;4.13;;
68074;SDS011;54864;52.002;5.468;2023-12-22T00:15:47;17.77;;;3.65;;
68074;SDS011;54864;52.002;5.468;2023-12-22T00:17:08;15.13;;;3.72;;
68074;SDS011;54864;52.002;5.468;2023-12-22T00:18:32;19.92;;;3.97;;
68074;SDS011;54864;52.002;5.468;2023-12-22T00:19:53;18.35;;;3.78;;
68074;SDS011;54864;52.002;5.468;2023-12-22T00:21:17;14.43;;;3.55;;
68074;SDS011;54864;52.002;5.468;2023-12-22T00:22:38;17.63;;;3.55;;
68074;SDS011;54864;52.002;5.468;2023-12-22T00:24:00;16.48;;;3.63;;
68074;SDS011;54864;52.002;5.468;2023-12-22T00:25:21;19.33;;;3.72;;
68074;SDS011;54864;52.002;5.468;2023-12-22T00:26:43;18.38;;;4.53;;
68074;SDS011;54864;52.002;5.468;2023-12-22T00:28:04;18.43;;;4.40;;
68074;SDS011;54864;52.002;5.468;2023-12-22T00:29:26;16.83;;;3.90;;
68074;SDS011;54864;52.002;5.468;2023-12-22T00:30:49;9.77;;;2.70;;
68074;SDS011;54864;52.002;5.468;2023-12-22T00:32:11;13.77;;;2.28;;
68074;SDS011;54864;52.002;5.468;2023-12-22T00:33:33;6.80;;;1.92;;
68074;SDS011;54864;52.002;5.468;2023-12-22T00:34:56;5.68;;;1.75;;
68074;SDS011;54864;52.002;5.468;2023-12-22T00:36:18;9.00;;;1.80;;
68074;SDS011;54864;52.002;5.468;2023-12-22T00:37:43;10.98;;;2.05;;
68074;SDS011;54864;52.002;5.468;2023-12-22T00:39:04;7.07;;;2.05;;
68074;SDS011;54864;52.002;5.468;2023-12-22T00:40:26;6.22;;;1.83;;
68074;SDS011;54864;52.002;5.468;2023-12-22T00:41:47;8.88;;;1.95;;
68074;SDS011;54864;52.002;5.468;2023-12-22T00:43:09;7.07;;;1.80;;
68074;SDS011;54864;52.002;5.468;2023-12-22T00:44:30;8.07;;;1.75;;
68074;SDS011;54864;52.002;5.468;2023-12-22T00:45:52;7.88;;;1.83;;
68074;SDS011;54864;52.002;5.468;2023-12-22T00:47:14;9.82;;;2.05;;
68074;SDS011;54864;52.002;5.468;2023-12-22T00:48:37;8.23;;;2.33;;
68074;SDS011;54864;52.002;5.468;2023-12-22T00:49:58;6.38;;;2.10;;
68074;SDS011;54864;52.002;5.468;2023-12-22T00:51:20;10.55;;;2.08;;
68074;SDS011;54864;52.002;5.468;2023-12-22T00:52:41;6.72;;;1.95;;
68074;SDS011;54864;52.002;5.468;2023-12-22T00:54:04;7.70;;;1.90;;
68074;SDS011;54864;52.002;5.468;2023-12-22T00:55:25;6.78;;;2.10;;
68074;SDS011;54864;52.002;5.468;2023-12-22T00:56:47;14.57;;;2.55;;
68074;SDS011;54864;52.002;5.468;2023-12-22T00:58:08;11.20;;;1.98;;
68074;SDS011;54864;52.002;5.468;2023-12-22T00:59:30;12.10;;;3.40;;
68074;SDS011;54864;52.002;5.468;2023-12-22T01:00:51;10.90;;;2.53;;
68074;SDS011;54864;52.002;5.468;2023-12-22T01:02:13;13.40;;;3.38;;
68074;SDS011;54864;52.002;5.468;2023-12-22T01:03:35;15.98;;;3.25;;
68074;SDS011;54864;52.002;5.468;2023-12-22T01:04:58;17.75;;;2.95;;
68074;SDS011;54864;52.002;5.468;2023-12-22T01:06:19;13.10;;;2.90;;
68074;SDS011;54864;52.002;5.468;2023-12-22T01:07:41;11.18;;;3.00;;
68074;SDS011;54864;52.002;5.468;2023-12-22T01:09:02;8.75;;;2.95;;
68074;SDS011;54864;52.002;5.468;2023-12-22T01:10:25;12.60;;;2.75;;
68074;SDS011;54864;52.002;5.468;2023-12-22T01:11:48;14.65;;;3.42;;
68074;SDS011;54864;52.002;5.468;2023-12-22T01:13:10;14.43;;;3.22;;
68074;SDS011;54864;52.002;5.468;2023-12-22T01:14:31;20.17;;;4.05;;
68074;SDS011;54864;52.002;5.468;2023-12-22T01:15:53;10.45;;;3.65;;
68074;SDS011;54864;52.002;5.468;2023-12-22T01:17:14;14.80;;;3.35;;
68074;SDS011;54864;52.002;5.468;2023-12-22T01:18:36;17.17;;;3.97;;
68074;SDS011;54864;52.002;5.468;2023-12-22T01:19:59;18.45;;;3.50;;
68074;SDS011;54864;52.002;5.468;2023-12-22T01:21:21;17.70;;;4.32;;
68074;SDS011;54864;52.002;5.468;2023-12-22T01:22:42;20.42;;;3.47;;
68074;SDS011;54864;52.002;5.468;2023-12-22T01:24:04;14.70;;;3.60;;
68074;SDS011;54864;52.002;5.468;2023-12-22T01:25:26;11.25;;;3.50;;
68074;SDS011;54864;52.002;5.468;2023-12-22T01:26:48;16.23;;;3.42;;
68074;SDS011;54864;52.002;5.468;2023-12-22T01:28:09;20.55;;;3.55;;
68074;SDS011;54864;52.002;5.468;2023-12-22T01:29:31;13.18;;;3.47;;
68074;SDS011;54864;52.002;5.468;2023-12-22T01:30:52;16.83;;;3.85;;
68074;SDS011;54864;52.002;5.468;2023-12-22T01:32:14;14.38;;;3.47;;
68074;SDS011;54864;52.002;5.468;2023-12-22T01:33:35;17.77;;;3.73;;
68074;SDS011;54864;52.002;5.468;2023-12-22T01:34:59;16.38;;;3.50;;
68074;SDS011;54864;52.002;5.468;2023-12-22T01:36:23;15.07;;;3.38;;
68074;SDS011;54864;52.002;5.468;2023-12-22T01:37:46;12.40;;;3.20;;
68074;SDS011;54864;52.002;5.468;2023-12-22T01:39:08;14.90;;;3.33;;
68074;SDS011;54864;52.002;5.468;2023-12-22T01:40:30;12.60;;;2.97;;
68074;SDS011;54864;52.002;5.468;2023-12-22T01:41:52;19.63;;;3.78;;
68074;SDS011;54864;52.002;5.468;2023-12-22T01:43:14;16.13;;;3.60;;
68074;SDS011;54864;52.002;5.468;2023-12-22T01:44:37;13.98;;;3.33;;
68074;SDS011;54864;52.002;5.468;2023-12-22T01:46:00;13.85;;;3.45;;
68074;SDS011;54864;52.002;5.468;2023-12-22T01:47:24;20.27;;;4.65;;
68074;SDS011;54864;52.002;5.468;2023-12-22T01:48:47;17.55;;;3.70;;
68074;SDS011;54864;52.002;5.468;2023-12-22T01:50:09;21.15;;;4.00;;
68074;SDS011;54864;52.002;5.468;2023-12-22T01:51:33;18.73;;;4.10;;
68074;SDS011;54864;52.002;5.468;2023-12-22T01:52:57;16.00;;;3.92;;
68074;SDS011;54864;52.002;5.468;2023-12-22T01:54:19;14.25;;;3.30;;
68074;SDS011;54864;52.002;5.468;2023-12-22T01:55:41;18.88;;;4.20;;
68074;SDS011;54864;52.002;5.468;2023-12-22T01:57:03;18.80;;;3.70;;
68074;SDS011;54864;52.002;5.468;2023-12-22T01:58:25;17.42;;;3.60;;
68074;SDS011;54864;52.002;5.468;2023-12-22T01:59:49;21.33;;;4.00;;
68074;SDS011;54864;52.002;5.468;2023-12-22T02:01:11;19.90;;;3.72;;
68074;SDS011;54864;52.002;5.468;2023-12-22T02:02:33;21.50;;;4.55;;
68074;SDS011;54864;52.002;5.468;2023-12-22T02:03:54;22.35;;;4.82;;
68074;SDS011;54864;52.002;5.468;2023-12-22T02:05:20;24.30;;;4.75;;
68074;SDS011;54864;52.002;5.468;2023-12-22T02:06:41;16.88;;;3.92;;
68074;SDS011;54864;52.002;5.468;2023-12-22T02:08:04;23.67;;;4.00;;
68074;SDS011;54864;52.002;5.468;2023-12-22T02:09:26;24.63;;;5.10;;
68074;SDS011;54864;52.002;5.468;2023-12-22T02:10:48;20.98;;;4.10;;
68074;SDS011;54864;52.002;5.468;2023-12-22T02:12:09;23.65;;;5.15;;
68074;SDS011;54864;52.002;5.468;2023-12-22T02:13:31;22.25;;;4.40;;
68074;SDS011;54864;52.002;5.468;2023-12-22T02:14:58;19.20;;;4.75;;
68074;SDS011;54864;52.002;5.468;2023-12-22T02:16:21;24.65;;;4.43;;
68074;SDS011;54864;52.002;5.468;2023-12-22T02:17:48;24.45;;;5.00;;
68074;SDS011;54864;52.002;5.468;2023-12-22T02:19:17;22.85;;;5.60;;
68074;SDS011;54864;52.002;5.468;2023-12-22T02:20:50;24.80;;;4.63;;
68074;SDS011;54864;52.002;5.468;2023-12-22T02:22:12;22.85;;;4.28;;
68074;SDS011;54864;52.002;5.468;2023-12-22T02:23:34;28.00;;;4.75;;
68074;SDS011;54864;52.002;5.468;2023-12-22T02:24:56;23.08;;;4.60;;
68074;SDS011;54864;52.002;5.468;2023-12-22T02:26:20;22.25;;;4.65;;
68074;SDS011;54864;52.002;5.468;2023-12-22T02:27:49;20.90;;;5.00;;
68074;SDS011;54864;52.002;5.468;2023-12-22T02:29:11;17.15;;;4.50;;
68074;SDS011;54864;52.002;5.468;2023-12-22T02:30:38;24.20;;;4.45;;
68074;SDS011;54864;52.002;5.468;2023-12-22T02:32:05;23.92;;;4.78;;
68074;SDS011;54864;52.002;5.468;2023-12-22T02:33:29;23.92;;;4.45;;
68074;SDS011;54864;52.002;5.468;2023-12-22T02:34:55;24.47;;;4.90;;
68074;SDS011;54864;52.002;5.468;2023-12-22T02:36:17;21.10;;;4.55;;
68074;SDS011;54864;52.002;5.468;2023-12-22T02:37:42;20.55;;;4.32;;
68074;SDS011;54864;52.002;5.468;2023-12-22T02:39:07;18.75;;;4.60;;
68074;SDS011;54864;52.002;5.468;2023-12-22T02:40:30;27.67;;;4.85;;
68074;SDS011;54864;52.002;5.468;2023-12-22T02:41:52;19.80;;;5.38;;
68074;SDS011;54864;52.002;5.468;2023-12-22T02:43:14;29.65;;;6.13;;
68074;SDS011;54864;52.002;5.468;2023-12-22T02:44:35;28.77;;;5.53;;
68074;SDS011;54864;52.002;5.468;2023-12-22T02:45:57;26.20;;;5.35;;
68074;SDS011;54864;52.002;5.468;2023-12-22T02:47:18;21.65;;;5.43;;
68074;SDS011;54864;52.002;5.468;2023-12-22T02:48:40;22.73;;;5.05;;
68074;SDS011;54864;52.002;5.468;2023-12-22T02:50:01;25.65;;;5.32;;
68074;SDS011;54864;52.002;5.468;2023-12-22T02:51:24;25.48;;;5.93;;
68074;SDS011;54864;52.002;5.468;2023-12-22T02:52:45;32.53;;;5.22;;
68074;SDS011;54864;52.002;5.468;2023-12-22T02:54:09;37.72;;;6.78;;
68074;SDS011;54864;52.002;5.468;2023-12-22T02:55:30;28.88;;;5.97;;
68074;SDS011;54864;52.002;5.468;2023-12-22T02:56:55;25.08;;;6.00;;
68074;SDS011;54864;52.002;5.468;2023-12-22T02:58:17;27.10;;;5.40;;
68074;SDS011;54864;52.002;5.468;2023-12-22T02:59:42;28.42;;;6.07;;
68074;SDS011;54864;52.002;5.468;2023-12-22T03:01:03;30.23;;;6.03;;
68074;SDS011;54864;52.002;5.468;2023-12-22T03:02:25;27.63;;;6.13;;
68074;SDS011;54864;52.002;5.468;2023-12-22T03:03:46;31.73;;;6.85;;
68074;SDS011;54864;52.002;5.468;2023-12-22T03:05:08;34.30;;;6.28;;
68074;SDS011;54864;52.002;5.468;2023-12-22T03:06:29;37.75;;;7.72;;
68074;SDS011;54864;52.002;5.468;2023-12-22T03:07:51;39.70;;;7.30;;
68074;SDS011;54864;52.002;5.468;2023-12-22T03:09:14;27.38;;;5.55;;
68074;SDS011;54864;52.002;5.468;2023-12-22T03:10:36;30.40;;;5.80;;
68074;SDS011;54864;52.002;5.468;2023-12-22T03:11:57;38.70;;;6.45;;
68074;SDS011;54864;52.002;5.468;2023-12-22T03:13:22;30.20;;;5.97;;
68074;SDS011;54864;52.002;5.468;2023-12-22T03:14:43;33.83;;;7.25;;
68074;SDS011;54864;52.002;5.468;2023-12-22T03:16:07;31.83;;;7.15;;
68074;SDS011;54864;52.002;5.468;2023-12-22T03:17:29;26.25;;;6.63;;
68074;SDS011;54864;52.002;5.468;2023-12-22T03:18:51;36.70;;;6.88;;
68074;SDS011;54864;52.002;5.468;2023-12-22T03:20:12;29.25;;;6.68;;
68074;SDS011;54864;52.002;5.468;2023-12-22T03:21:34;27.83;;;6.18;;
68074;SDS011;54864;52.002;5.468;2023-12-22T03:22:55;24.48;;;6.80;;
68074;SDS011;54864;52.002;5.468;2023-12-22T03:24:19;32.65;;;6.07;;
68074;SDS011;54864;52.002;5.468;2023-12-22T03:25:41;24.67;;;6.13;;
68074;SDS011;54864;52.002;5.468;2023-12-22T03:27:03;28.35;;;6.00;;
68074;SDS011;54864;52.002;5.468;2023-12-22T03:28:24;34.10;;;6.78;;
68074;SDS011;54864;52.002;5.468;2023-12-22T03:29:46;27.55;;;6.45;;
68074;SDS011;54864;52.002;5.468;2023-12-22T03:31:07;28.40;;;5.90;;
68074;SDS011;54864;52.002;5.468;2023-12-22T03:32:29;31.63;;;6.28;;
68074;SDS011;54864;52.002;5.468;2023-12-22T03:33:51;26.08;;;6.20;;
68074;SDS011;54864;52.002;5.468;2023-12-22T03:35:13;32.95;;;7.38;;
68074;SDS011;54864;52.002;5.468;2023-12-22T03:36:34;23.95;;;5.97;;
68074;SDS011;54864;52.002;5.468;2023-12-22T03:37:56;31.15;;;6.55;;
68074;SDS011;54864;52.002;5.468;2023-12-22T03:39:19;25.55;;;6.00;;
68074;SDS011;54864;52.002;5.468;2023-12-22T03:40:41;21.52;;;5.47;;
68074;SDS011;54864;52.002;5.468;2023-12-22T03:42:02;26.13;;;5.95;;
68074;SDS011;54864;52.002;5.468;2023-12-22T03:43:25;32.90;;;6.68;;
68074;SDS011;54864;52.002;5.468;2023-12-22T03:44:46;30.88;;;6.03;;
68074;SDS011;54864;52.002;5.468;2023-12-22T03:46:08;32.65;;;6.38;;
68074;SDS011;54864;52.002;5.468;2023-12-22T03:47:29;30.35;;;6.20;;
68074;SDS011;54864;52.002;5.468;2023-12-22T03:48:51;32.03;;;6.43;;
68074;SDS011;54864;52.002;5.468;2023-12-22T03:50:13;32.42;;;6.38;;
68074;SDS011;54864;52.002;5.468;2023-12-22T03:51:35;34.42;;;6.75;;
68074;SDS011;54864;52.002;5.468;2023-12-22T03:52:58;29.83;;;5.80;;
68074;SDS011;54864;52.002;5.468;2023-12-22T03:54:21;31.80;;;6.95;;
68074;SDS011;54864;52.002;5.468;2023-12-22T03:55:42;29.25;;;6.13;;
68074;SDS011;54864;52.002;5.468;2023-12-22T03:57:04;33.25;;;6.30;;
68074;SDS011;54864;52.002;5.468;2023-12-22T03:58:25;26.63;;;6.38;;
68074;SDS011;54864;52.002;5.468;2023-12-22T03:59:48;32.33;;;6.05;;
68074;SDS011;54864;52.002;5.468;2023-12-22T04:01:09;27.77;;;6.63;;
68074;SDS011;54864;52.002;5.468;2023-12-22T04:02:35;24.00;;;6.30;;
68074;SDS011;54864;52.002;5.468;2023-12-22T04:03:56;34.03;;;6.75;;
68074;SDS011;54864;52.002;5.468;2023-12-22T04:05:18;33.40;;;6.50;;
68074;SDS011;54864;52.002;5.468;2023-12-22T04:06:39;32.75;;;7.03;;
68074;SDS011;54864;52.002;5.468;2023-12-22T04:08:01;28.27;;;6.55;;
68074;SDS011;54864;52.002;5.468;2023-12-22T04:09:24;28.15;;;6.15;;
68074;SDS011;54864;52.002;5.468;2023-12-22T04:10:46;30.33;;;6.13;;
68074;SDS011;54864;52.002;5.468;2023-12-22T04:12:07;31.17;;;5.88;;
68074;SDS011;54864;52.002;5.468;2023-12-22T04:13:30;26.65;;;5.45;;
68074;SDS011;54864;52.002;5.468;2023-12-22T04:14:51;21.73;;;4.55;;
68074;SDS011;54864;52.002;5.468;2023-12-22T04:16:14;19.35;;;4.93;;
68074;SDS011;54864;52.002;5.468;2023-12-22T04:17:35;20.58;;;4.43;;
68074;SDS011;54864;52.002;5.468;2023-12-22T04:18:57;18.60;;;4.72;;
68074;SDS011;54864;52.002;5.468;2023-12-22T04:20:18;17.75;;;5.03;;
68074;SDS011;54864;52.002;5.468;2023-12-22T04:21:41;26.48;;;5.32;;
68074;SDS011;54864;52.002;5.468;2023-12-22T04:23:02;16.25;;;4.15;;
68074;SDS011;54864;52.002;5.468;2023-12-22T04:24:26;19.08;;;4.65;;
68074;SDS011;54864;52.002;5.468;2023-12-22T04:25:48;17.45;;;4.47;;
68074;SDS011;54864;52.002;5.468;2023-12-22T04:27:10;20.90;;;4.45;;
68074;SDS011;54864;52.002;5.468;2023-12-22T04:28:32;20.85;;;5.13;;
68074;SDS011;54864;52.002;5.468;2023-12-22T04:29:54;19.58;;;4.00;;
68074;SDS011;54864;52.002;5.468;2023-12-22T04:31:15;19.45;;;4.22;;
68074;SDS011;54864;52.002;5.468;2023-12-22T04:32:37;19.67;;;5.10;;
68074;SDS011;54864;52.002;5.468;2023-12-22T04:33:58;22.83;;;4.50;;
68074;SDS011;54864;52.002;5.468;2023-12-22T04:35:20;24.20;;;5.03;;
68074;SDS011;54864;52.002;5.468;2023-12-22T04:36:41;20.95;;;4.75;;
68074;SDS011;54864;52.002;5.468;2023-12-22T04:38:03;16.60;;;4.20;;
68074;SDS011;54864;52.002;5.468;2023-12-22T04:39:25;17.27;;;4.03;;
68074;SDS011;54864;52.002;5.468;2023-12-22T04:40:48;18.48;;;4.15;;
68074;SDS011;54864;52.002;5.468;2023-12-22T04:42:09;23.85;;;4.85;;
68074;SDS011;54864;52.002;5.468;2023-12-22T04:43:31;20.85;;;4.40;;
68074;SDS011;54864;52.002;5.468;2023-12-22T04:44:53;21.50;;;5.28;;
68074;SDS011;54864;52.002;5.468;2023-12-22T04:46:15;20.05;;;4.57;;
68074;SDS011;54864;52.002;5.468;2023-12-22T04:47:37;25.05;;;4.97;;
68074;SDS011;54864;52.002;5.468;2023-12-22T04:48:58;26.95;;;5.10;;
68074;SDS011;54864;52.002;5.468;2023-12-22T04:50:20;21.73;;;5.63;;
68074;SDS011;54864;52.002;5.468;2023-12-22T04:51:42;23.17;;;4.53;;
68074;SDS011;54864;52.002;5.468;2023-12-22T04:53:04;29.58;;;6.47;;
68074;SDS011;54864;52.002;5.468;2023-12-22T04:54:26;26.10;;;6.10;;
68074;SDS011;54864;52.002;5.468;2023-12-22T04:55:49;24.75;;;5.63;;
68074;SDS011;54864;52.002;5.468;2023-12-22T04:57:10;26.98;;;5.65;;
68074;SDS011;54864;52.002;5.468;2023-12-22T04:58:35;30.27;;;6.27;;
68074;SDS011;54864;52.002;5.468;2023-12-22T04:59:56;30.33;;;6.68;;
68074;SDS011;54864;52.002;5.468;2023-12-22T05:01:18;32.53;;;6.57;;
68074;SDS011;54864;52.002;5.468;2023-12-22T05:02:39;33.25;;;7.00;;
68074;SDS011;54864;52.002;5.468;2023-12-22T05:04:02;33.65;;;7.10;;
68074;SDS011;54864;52.002;5.468;2023-12-22T05:05:23;31.60;;;6.57;;
68074;SDS011;54864;52.002;5.468;2023-12-22T05:06:45;30.10;;;6.68;;
68074;SDS011;54864;52.002;5.468;2023-12-22T05:08:06;29.27;;;6.50;;
68074;SDS011;54864;52.002;5.468;2023-12-22T05:09:30;29.23;;;6.68;;
68074;SDS011;54864;52.002;5.468;2023-12-22T05:10:51;30.02;;;6.18;;
68074;SDS011;54864;52.002;5.468;2023-12-22T05:12:13;28.30;;;6.22;;
68074;SDS011;54864;52.002;5.468;2023-12-22T05:13:34;27.02;;;6.78;;
68074;SDS011;54864;52.002;5.468;2023-12-22T05:14:57;24.25;;;6.47;;
68074;SDS011;54864;52.002;5.468;2023-12-22T05:16:18;29.30;;;5.80;;
68074;SDS011;54864;52.002;5.468;2023-12-22T05:17:40;34.95;;;6.25;;
68074;SDS011;54864;52.002;5.468;2023-12-22T05:19:01;31.43;;;5.80;;
68074;SDS011;54864;52.002;5.468;2023-12-22T05:20:23;30.83;;;6.23;;
68074;SDS011;54864;52.002;5.468;2023-12-22T05:21:44;26.50;;;5.93;;
68074;SDS011;54864;52.002;5.468;2023-12-22T05:23:06;18.65;;;4.65;;
68074;SDS011;54864;52.002;5.468;2023-12-22T05:24:27;25.48;;;5.18;;
68074;SDS011;54864;52.002;5.468;2023-12-22T05:25:51;28.52;;;5.45;;
68074;SDS011;54864;52.002;5.468;2023-12-22T05:27:12;19.20;;;4.82;;
68074;SDS011;54864;52.002;5.468;2023-12-22T05:28:37;31.35;;;6.28;;
68074;SDS011;54864;52.002;5.468;2023-12-22T05:29:58;22.25;;;5.57;;
68074;SDS011;54864;52.002;5.468;2023-12-22T05:31:22;21.75;;;5.35;;
68074;SDS011;54864;52.002;5.468;2023-12-22T05:32:43;19.98;;;5.47;;
68074;SDS011;54864;52.002;5.468;2023-12-22T05:34:06;24.08;;;5.05;;
68074;SDS011;54864;52.002;5.468;2023-12-22T05:35:28;22.48;;;5.18;;
68074;SDS011;54864;52.002;5.468;2023-12-22T05:36:50;25.35;;;5.80;;
68074;SDS011;54864;52.002;5.468;2023-12-22T05:38:11;27.45;;;4.63;;
68074;SDS011;54864;52.002;5.468;2023-12-22T05:39:35;19.75;;;5.20;;
68074;SDS011;54864;52.002;5.468;2023-12-22T05:40:59;23.50;;;5.25;;
68074;SDS011;54864;52.002;5.468;2023-12-22T05:42:23;24.08;;;5.53;;
68074;SDS011;54864;52.002;5.468;2023-12-22T05:43:45;23.92;;;5.50;;
68074;SDS011;54864;52.002;5.468;2023-12-22T05:45:07;23.60;;;5.57;;
68074;SDS011;54864;52.002;5.468;2023-12-22T05:46:35;20.63;;;5.28;;
68074;SDS011;54864;52.002;5.468;2023-12-22T05:48:00;21.13;;;5.10;;
68074;SDS011;54864;52.002;5.468;2023-12-22T05:49:22;25.00;;;5.65;;
68074;SDS011;54864;52.002;5.468;2023-12-22T05:50:44;23.08;;;4.35;;
68074;SDS011;54864;52.002;5.468;2023-12-22T05:52:08;23.88;;;5.00;;
68074;SDS011;54864;52.002;5.468;2023-12-22T05:53:30;18.58;;;4.43;;
68074;SDS011;54864;52.002;5.468;2023-12-22T05:54:53;21.58;;;4.90;;
68074;SDS011;54864;52.002;5.468;2023-12-22T05:56:19;19.95;;;4.95;;
68074;SDS011;54864;52.002;5.468;2023-12-22T05:57:41;19.20;;;5.07;;
68074;SDS011;54864;52.002;5.468;2023-12-22T05:59:02;16.80;;;4.47;;
68074;SDS011;54864;52.002;5.468;2023-12-22T06:00:24;23.63;;;5.07;;
68074;SDS011;54864;52.002;5.468;2023-12-22T06:01:46;31.27;;;5.88;;
68074;SDS011;54864;52.002;5.468;2023-12-22T06:03:08;18.33;;;4.95;;
68074;SDS011;54864;52.002;5.468;2023-12-22T06:04:29;19.45;;;5.18;;
68074;SDS011;54864;52.002;5.468;2023-12-22T06:05:52;18.27;;;4.75;;
68074;SDS011;54864;52.002;5.468;2023-12-22T06:07:13;31.65;;;4.93;;
68074;SDS011;54864;52.002;5.468;2023-12-22T06:08:35;19.33;;;4.82;;
68074;SDS011;54864;52.002;5.468;2023-12-22T06:09:57;14.50;;;4.03;;
68074;SDS011;54864;52.002;5.468;2023-12-22T06:11:20;21.27;;;5.57;;
68074;SDS011;54864;52.002;5.468;2023-12-22T06:12:42;22.25;;;5.75;;
68074;SDS011;54864;52.002;5.468;2023-12-22T06:14:04;26.10;;;5.40;;
68074;SDS011;54864;52.002;5.468;2023-12-22T06:15:25;24.02;;;5.20;;
68074;SDS011;54864;52.002;5.468;2023-12-22T06:16:47;21.17;;;5.63;;
68074;SDS011;54864;52.002;5.468;2023-12-22T06:18:08;23.20;;;4.75;;
68074;SDS011;54864;52.002;5.468;2023-12-22T06:19:30;20.70;;;4.40;;
68074;SDS011;54864;52.002;5.468;2023-12-22T06:20:52;21.17;;;4.60;;
68074;SDS011;54864;52.002;5.468;2023-12-22T06:22:14;23.00;;;5.53;;
68074;SDS011;54864;52.002;5.468;2023-12-22T06:23:35;22.05;;;5.75;;
68074;SDS011;54864;52.002;5.468;2023-12-22T06:24:58;24.85;;;5.13;;
68074;SDS011;54864;52.002;5.468;2023-12-22T06:26:20;22.35;;;5.07;;
68074;SDS011;54864;52.002;5.468;2023-12-22T06:27:44;20.83;;;5.60;;
68074;SDS011;54864;52.002;5.468;2023-12-22T06:29:06;30.70;;;5.80;;
68074;SDS011;54864;52.002;5.468;2023-12-22T06:30:28;22.65;;;5.10;;
68074;SDS011;54864;52.002;5.468;2023-12-22T06:31:50;32.22;;;6.22;;
68074;SDS011;54864;52.002;5.468;2023-12-22T06:33:12;19.67;;;5.43;;
68074;SDS011;54864;52.002;5.468;2023-12-22T06:34:33;25.73;;;5.05;;
68074;SDS011;54864;52.002;5.468;2023-12-22T06:35:55;19.95;;;5.50;;
68074;SDS011;54864;52.002;5.468;2023-12-22T06:37:17;25.45;;;5.57;;
68074;SDS011;54864;52.002;5.468;2023-12-22T06:38:42;20.95;;;6.10;;
68074;SDS011;54864;52.002;5.468;2023-12-22T06:40:03;20.33;;;5.78;;
68074;SDS011;54864;52.002;5.468;2023-12-22T06:41:28;29.27;;;5.90;;
68074;SDS011;54864;52.002;5.468;2023-12-22T06:42:52;29.65;;;5.65;;
68074;SDS011;54864;52.002;5.468;2023-12-22T06:44:14;26.50;;;6.18;;
68074;SDS011;54864;52.002;5.468;2023-12-22T06:45:36;28.38;;;6.82;;
68074;SDS011;54864;52.002;5.468;2023-12-22T06:46:57;25.70;;;6.57;;
68074;SDS011;54864;52.002;5.468;2023-12-22T06:48:19;32.03;;;6.57;;
68074;SDS011;54864;52.002;5.468;2023-12-22T06:49:43;26.33;;;5.90;;
68074;SDS011;54864;52.002;5.468;2023-12-22T06:51:06;24.67;;;5.20;;
68074;SDS011;54864;52.002;5.468;2023-12-22T06:52:28;27.20;;;5.90;;
68074;SDS011;54864;52.002;5.468;2023-12-22T06:53:50;29.92;;;6.22;;
68074;SDS011;54864;52.002;5.468;2023-12-22T06:55:11;26.33;;;5.70;;
68074;SDS011;54864;52.002;5.468;2023-12-22T06:56:35;27.83;;;5.93;;
68074;SDS011;54864;52.002;5.468;2023-12-22T06:57:56;24.33;;;6.05;;
68074;SDS011;54864;52.002;5.468;2023-12-22T06:59:18;36.78;;;6.80;;
68074;SDS011;54864;52.002;5.468;2023-12-22T07:00:40;31.95;;;6.57;;
68074;SDS011;54864;52.002;5.468;2023-12-22T07:02:02;28.20;;;5.97;;
68074;SDS011;54864;52.002;5.468;2023-12-22T07:03:24;34.30;;;8.20;;
68074;SDS011;54864;52.002;5.468;2023-12-22T07:06:57;29.63;;;6.47;;
68074;SDS011;54864;52.002;5.468;2023-12-22T07:08:19;30.17;;;7.72;;
68074;SDS011;54864;52.002;5.468;2023-12-22T07:09:40;36.35;;;7.00;;
68074;SDS011;54864;52.002;5.468;2023-12-22T07:11:02;29.20;;;7.45;;
68074;SDS011;54864;52.002;5.468;2023-12-22T07:12:24;42.17;;;8.45;;
68074;SDS011;54864;52.002;5.468;2023-12-22T07:13:47;30.92;;;7.18;;
68074;SDS011;54864;52.002;5.468;2023-12-22T07:15:08;39.83;;;8.40;;
68074;SDS011;54864;52.002;5.468;2023-12-22T07:16:31;34.10;;;7.60;;
68074;SDS011;54864;52.002;5.468;2023-12-22T07:17:53;33.33;;;7.82;;
68074;SDS011;54864;52.002;5.468;2023-12-22T07:19:15;41.92;;;8.85;;
68074;SDS011;54864;52.002;5.468;2023-12-22T07:20:36;38.65;;;8.73;;
68074;SDS011;54864;52.002;5.468;2023-12-22T07:21:58;45.67;;;8.48;;
68074;SDS011;54864;52.002;5.468;2023-12-22T07:23:19;35.00;;;8.55;;
68074;SDS011;54864;52.002;5.468;2023-12-22T07:24:41;35.60;;;8.40;;
68074;SDS011;54864;52.002;5.468;2023-12-22T07:26:06;40.95;;;8.32;;
68074;SDS011;54864;52.002;5.468;2023-12-22T07:27:30;40.13;;;8.25;;
68074;SDS011;54864;52.002;5.468;2023-12-22T07:28:51;41.80;;;8.57;;
68074;SDS011;54864;52.002;5.468;2023-12-22T07:30:14;34.65;;;8.10;;
68074;SDS011;54864;52.002;5.468;2023-12-22T07:31:36;41.22;;;9.43;;
68074;SDS011;54864;52.002;5.468;2023-12-22T07:32:59;40.13;;;9.32;;
68074;SDS011;54864;52.002;5.468;2023-12-22T07:34:20;38.25;;;9.93;;
68074;SDS011;54864;52.002;5.468;2023-12-22T07:35:42;40.97;;;8.57;;
68074;SDS011;54864;52.002;5.468;2023-12-22T07:37:04;35.60;;;8.55;;
68074;SDS011;54864;52.002;5.468;2023-12-22T07:38:26;37.83;;;8.77;;
68074;SDS011;54864;52.002;5.468;2023-12-22T07:39:49;40.05;;;9.18;;
68074;SDS011;54864;52.002;5.468;2023-12-22T07:41:11;35.60;;;9.13;;
68074;SDS011;54864;52.002;5.468;2023-12-22T07:42:33;42.75;;;9.68;;
68074;SDS011;54864;52.002;5.468;2023-12-22T07:43:56;45.10;;;9.48;;
68074;SDS011;54864;52.002;5.468;2023-12-22T07:45:17;46.03;;;9.70;;
68074;SDS011;54864;52.002;5.468;2023-12-22T07:46:40;43.45;;;10.05;;
68074;SDS011;54864;52.002;5.468;2023-12-22T07:48:02;39.78;;;8.27;;
68074;SDS011;54864;52.002;5.468;2023-12-22T07:49:24;36.28;;;8.30;;
68074;SDS011;54864;52.002;5.468;2023-12-22T07:50:45;36.28;;;7.78;;
68074;SDS011;54864;52.002;5.468;2023-12-22T07:52:08;31.65;;;7.47;;
68074;SDS011;54864;52.002;5.468;2023-12-22T07:53:29;31.92;;;7.40;;
68074;SDS011;54864;52.002;5.468;2023-12-22T07:54:51;29.50;;;6.93;;
68074;SDS011;54864;52.002;5.468;2023-12-22T07:56:13;28.10;;;6.83;;
68074;SDS011;54864;52.002;5.468;2023-12-22T07:57:36;30.13;;;6.88;;
68074;SDS011;54864;52.002;5.468;2023-12-22T07:58:57;36.15;;;6.97;;
68074;SDS011;54864;52.002;5.468;2023-12-22T08:00:20;37.55;;;7.28;;
68074;SDS011;54864;52.002;5.468;2023-12-22T08:01:41;35.88;;;8.23;;
68074;SDS011;54864;52.002;5.468;2023-12-22T08:03:04;32.08;;;7.60;;
68074;SDS011;54864;52.002;5.468;2023-12-22T08:04:25;40.15;;;8.10;;
68074;SDS011;54864;52.002;5.468;2023-12-22T08:05:47;37.40;;;9.02;;
68074;SDS011;54864;52.002;5.468;2023-12-22T08:07:09;41.53;;;9.07;;
68074;SDS011;54864;52.002;5.468;2023-12-22T08:08:30;38.00;;;9.05;;
68074;SDS011;54864;52.002;5.468;2023-12-22T08:09:53;40.90;;;8.85;;
68074;SDS011;54864;52.002;5.468;2023-12-22T08:11:15;42.88;;;9.13;;